Time;durP1;ratioP1;P1;durP2;ratioP2;P2;SDS_P1;SDS_P2;PMS_P1;PMS_P2;Temp;Humidity;BMP_temperature;BMP_pressure;BME280_temperature;BME280_humidity;BME280_pressure;Samples;Min_cycle;Max_cycle;Signal;HPM_P1;HPM_P2
2022/05/13 00:00:44;;;;;;;6.90;1.20;;;;;;;17.58;35.97;94834.09;4810067;29;20022;-89
2022/05/13 00:03:10;;;;;;;3.17;1.15;;;;;;;17.73;35.07;94851.50;4795624;29;20040;-89
2022/05/13 00:05:35;;;;;;;3.08;1.00;;;;;;;17.53;35.65;94843.72;4810141;29;20122;-89
2022/05/13 00:08:01;;;;;;;3.30;1.30;;;;;;;17.59;35.54;94831.13;4809993;29;20053;-90
2022/05/13 00:10:26;;;;;;;3.15;1.38;;;;;;;17.75;35.19;94844.03;4794571;29;20035;-89
2022/05/13 00:13:00;;;;;;;4.07;1.13;;;;;;;17.62;35.26;94835.81;4795305;29;20038;-89
2022/05/13 00:15:26;;;;;;;6.50;2.03;;;;;;;17.60;35.28;94834.56;4809626;29;20035;-88
2022/05/13 00:17:56;;;;;;;5.95;1.30;;;;;;;17.48;36.00;94835.88;4810039;29;20076;-89
2022/05/13 00:20:22;;;;;;;9.57;1.33;;;;;;;17.64;35.08;94836.31;4809851;29;20526;-89
2022/05/13 00:22:53;;;;;;;4.80;1.30;;;;;;;17.67;35.15;94825.13;4794982;29;20042;-89
2022/05/13 00:25:21;;;;;;;3.17;1.30;;;;;;;17.47;35.82;94834.31;4809639;29;20030;-89
2022/05/13 00:27:47;;;;;;;3.38;1.05;;;;;;;17.56;34.84;94837.03;4810079;29;20323;-88
2022/05/13 00:30:12;;;;;;;5.82;1.10;;;;;;;17.63;35.31;94834.75;4794797;29;20038;-89
2022/05/13 00:32:39;;;;;;;5.70;1.30;;;;;;;17.47;35.38;94858.16;4809815;29;20035;-89
2022/05/13 00:35:06;;;;;;;2.85;1.20;;;;;;;17.44;35.26;94844.72;4809706;29;20125;-89
2022/05/13 00:37:32;;;;;;;7.22;1.48;;;;;;;17.38;35.97;94846.69;4809630;29;20031;-89
2022/05/13 00:39:58;;;;;;;4.10;1.20;;;;;;;17.49;35.48;94855.19;4794955;29;20459;-89
2022/05/13 00:42:24;;;;;;;6.32;1.65;;;;;;;17.52;35.45;94830.78;4809392;29;20031;-89
2022/05/13 00:44:49;;;;;;;4.93;1.20;;;;;;;17.47;35.76;94834.31;4794525;29;20043;-89
2022/05/13 00:47:15;;;;;;;6.50;1.38;;;;;;;17.36;35.68;94833.78;4809161;29;20058;-89
2022/05/13 00:49:41;;;;;;;3.17;1.27;;;;;;;17.45;35.04;94830.41;4794682;29;20037;-88
2022/05/13 00:52:10;;;;;;;5.05;1.35;;;;;;;17.57;35.11;94832.50;4809295;29;20117;-88
2022/05/13 00:54:37;;;;;;;4.28;1.25;;;;;;;17.55;34.92;94821.44;4794526;29;20034;-88
2022/05/13 00:57:03;;;;;;;4.22;1.10;;;;;;;17.44;35.86;94823.53;4809203;29;20480;-89
2022/05/13 00:59:33;;;;;;;7.90;1.20;;;;;;;17.36;35.82;94817.09;4809624;29;20068;-88
2022/05/13 01:01:58;;;;;;;4.13;1.13;;;;;;;17.35;35.60;94829.53;4809591;29;20031;-89
2022/05/13 01:04:25;;;;;;;3.20;1.00;;;;;;;16.95;38.17;94829.31;4794440;29;20037;-89
2022/05/13 01:06:52;;;;;;;6.53;1.25;;;;;;;16.54;38.64;94825.59;4808894;29;20113;-89
2022/05/13 01:09:19;;;;;;;9.55;1.88;;;;;;;16.17;41.34;94827.34;4809445;29;20031;-88
2022/05/13 01:11:46;;;;;;;8.18;1.40;;;;;;;16.19;39.45;94825.16;4809226;29;20035;-89
2022/05/13 01:14:16;;;;;;;4.68;1.02;;;;;;;16.60;38.43;94826.28;4809087;29;20041;-89
2022/05/13 01:19:26;;;;;;;4.10;1.42;;;;;;;15.93;43.19;94821.13;4810112;29;20102;-90
2022/05/13 01:21:51;;;;;;;2.65;1.00;;;;;;;16.01;39.78;94819.66;4794303;29;20426;-89
2022/05/13 01:24:19;;;;;;;6.53;1.05;;;;;;;16.39;38.30;94822.16;4793885;29;20034;-89
2022/05/13 01:26:45;;;;;;;4.18;1.30;;;;;;;16.29;40.57;94813.63;4809399;29;20041;-88
2022/05/13 01:29:10;;;;;;;1.63;0.80;;;;;;;16.93;36.14;94810.31;4809008;29;20129;-89
2022/05/13 01:31:39;;;;;;;3.90;0.88;;;;;;;17.01;36.12;94806.97;4793808;29;20445;-88
2022/05/13 01:34:07;;;;;;;5.40;1.25;;;;;;;16.42;39.03;94812.84;4808803;29;20130;-89
2022/05/13 01:36:33;;;;;;;5.25;0.90;;;;;;;16.22;38.81;94809.53;4794005;29;20041;-89
2022/05/13 01:38:59;;;;;;;4.13;1.00;;;;;;;15.95;39.70;94808.41;4794188;29;20310;-89
2022/05/13 01:41:25;;;;;;;2.72;1.10;;;;;;;16.10;38.16;94812.63;4808879;29;20441;-89
2022/05/13 01:43:52;;;;;;;7.47;1.00;;;;;;;16.53;37.85;94808.94;4778881;29;20100;-89
2022/05/13 01:46:19;;;;;;;1.80;0.82;;;;;;;16.31;38.33;94808.81;4793738;29;20058;-89
2022/05/13 01:48:45;;;;;;;2.70;1.10;;;;;;;16.02;39.76;94809.84;4794225;29;20038;-90
2022/05/13 01:51:10;;;;;;;6.35;1.55;;;;;;;15.61;43.25;94813.94;4811946;29;20038;-90
2022/05/13 01:53:36;;;;;;;7.07;1.23;;;;;;;15.30;43.77;94812.53;4791676;29;20035;-90
2022/05/13 01:56:02;;;;;;;3.90;0.93;;;;;;;15.62;39.76;94803.06;4792487;29;20049;-90
2022/05/13 01:58:27;;;;;;;3.33;1.05;;;;;;;15.57;40.92;94803.16;4798655;29;20467;-90
2022/05/13 02:00:56;;;;;;;4.05;1.00;;;;;;;16.11;38.42;94798.31;4786507;29;20031;-89
2022/05/13 02:06:07;;;;;;;5.65;1.35;;;;;;;15.75;42.19;94796.28;4817632;29;20098;-90
2022/05/13 02:08:33;;;;;;;5.28;1.10;;;;;;;15.51;43.55;94797.16;4815175;29;20117;-90
2022/05/13 02:11:04;;;;;;;5.60;1.05;;;;;;;15.46;41.06;94794.59;4797370;29;20460;-91
2022/05/13 02:13:30;;;;;;;7.22;1.85;;;;;;;15.41;41.66;94799.94;4800889;29;20034;-91
2022/05/13 02:15:55;;;;;;;9.00;1.20;;;;;;;15.00;43.96;94796.03;4815325;29;20171;-91
2022/05/13 02:18:21;;;;;;;8.95;1.00;;;;;;;14.97;42.45;94794.75;4800023;29;20038;-91
2022/05/13 02:20:49;;;;;;;8.05;1.30;;;;;;;14.85;44.27;94799.69;4800367;29;20029;-92
2022/05/13 02:23:18;;;;;;;2.92;1.00;;;;;;;14.88;43.82;94793.03;4800613;29;20030;-91
2022/05/13 02:25:46;;;;;;;3.95;1.15;;;;;;;14.58;47.01;94798.38;4815628;29;20075;-92
2022/05/13 02:28:11;;;;;;;6.78;0.90;;;;;;;14.58;44.30;94798.38;4800582;29;20026;-91
2022/05/13 02:30:37;;;;;;;4.63;1.20;;;;;;;14.45;45.59;94797.19;4799906;29;20060;-92
2022/05/13 02:33:03;;;;;;;2.85;0.90;;;;;;;14.35;47.89;94789.41;4800561;29;20325;-92
2022/05/13 02:35:28;;;;;;;2.00;1.05;;;;;;;14.25;47.45;94799.00;4815429;29;20026;-92
2022/05/13 02:37:54;;;;;;;4.43;1.02;;;;;;;14.02;51.29;94790.00;4800311;29;20030;-92
2022/05/13 02:40:20;;;;;;;4.68;1.20;;;;;;;14.17;45.83;94794.31;4815040;29;20137;-92
2022/05/13 02:42:49;;;;;;;7.53;1.23;;;;;;;14.32;46.17;94789.94;4799894;29;20076;-92
2022/05/13 02:45:17;;;;;;;5.97;1.20;;;;;;;14.43;46.84;94794.06;4799940;29;20030;-92
2022/05/13 02:47:44;;;;;;;6.65;1.17;;;;;;;14.28;48.29;94792.38;4815385;29;20026;-91
2022/05/13 02:50:19;;;;;;;3.70;1.65;;;;;;;14.33;47.35;94787.03;4800137;29;20030;-92
2022/05/13 02:52:50;;;;;;;13.75;1.48;;;;;;;14.46;48.71;94788.22;4801111;29;20042;-92
2022/05/13 02:55:16;;;;;;;4.75;1.08;;;;;;;14.49;47.40;94792.94;4799597;29;20038;-90
2022/05/13 02:57:42;;;;;;;5.57;1.30;;;;;;;15.29;46.11;94797.75;4799619;29;20042;-92
2022/05/13 03:00:09;;;;;;;3.58;1.40;;;;;;;15.22;46.43;94797.34;4799481;29;20460;-91
2022/05/13 03:02:35;;;;;;;7.30;1.25;;;;;;;15.26;46.72;94788.53;4812946;29;20095;-92
2022/05/13 03:05:03;;;;;;;2.67;0.82;;;;;;;15.24;47.18;94790.69;4799445;29;20042;-91
2022/05/13 03:07:29;;;;;;;5.68;1.40;;;;;;;15.68;45.01;94778.16;4799509;29;20081;-91
2022/05/13 03:09:54;;;;;;;6.00;1.45;;;;;;;15.62;44.86;94783.81;4794373;29;20069;-92
2022/05/13 03:12:39;;;;;;;6.32;1.40;;;;;;;15.59;45.96;94793.09;4786263;29;20062;-91
2022/05/13 03:15:05;;;;;;;13.73;1.73;;;;;;;15.40;47.81;94791.25;4781516;29;20505;-91
2022/05/13 03:17:31;;;;;;;6.65;1.30;;;;;;;15.51;47.02;94785.84;4796001;29;20442;-91
2022/05/13 03:19:57;;;;;;;4.35;1.38;;;;;;;15.63;46.37;94786.13;4781335;29;20035;-92
2022/05/13 03:22:26;;;;;;;3.28;1.45;;;;;;;14.92;49.13;94783.47;4781416;29;20486;-91
2022/05/13 03:24:54;;;;;;;7.32;1.42;;;;;;;14.71;50.45;94789.00;4796337;29;20125;-92
2022/05/13 03:27:19;;;;;;;5.85;1.70;;;;;;;14.66;49.42;94786.41;4781272;29;20464;-92
2022/05/13 03:29:45;;;;;;;13.07;1.38;;;;;;;14.33;51.31;94786.25;4781745;29;20039;-91
2022/05/13 03:32:10;;;;;;;8.27;1.95;;;;;;;14.25;52.13;94783.19;4781302;29;20502;-91
2022/05/13 03:34:39;;;;;;;4.97;1.40;;;;;;;14.23;51.95;94785.31;4781520;29;20039;-92
2022/05/13 03:37:05;;;;;;;5.55;1.30;;;;;;;14.26;50.48;94783.94;4781079;29;20042;-91
2022/05/13 03:39:31;;;;;;;2.63;1.20;;;;;;;14.34;51.03;94779.91;4781236;29;20129;-91
2022/05/13 03:41:56;;;;;;;4.38;1.60;;;;;;;14.25;51.03;94785.81;4781004;29;20054;-91
2022/05/13 03:44:22;;;;;;;7.15;1.70;;;;;;;14.33;51.70;94781.78;4795745;29;20046;-91
2022/05/13 03:46:47;;;;;;;4.55;1.20;;;;;;;14.18;53.48;94780.06;4780827;29;20520;-92
2022/05/13 03:49:13;;;;;;;5.70;1.55;;;;;;;13.91;56.35;94791.16;4781071;29;20350;-92
2022/05/13 03:51:39;;;;;;;5.63;1.45;;;;;;;13.99;53.40;94782.66;4781001;29;20054;-92
2022/05/13 03:54:05;;;;;;;7.00;1.48;;;;;;;13.87;56.90;94785.66;4780496;29;20058;-92
2022/05/13 03:56:30;;;;;;;6.90;1.58;;;;;;;13.87;55.26;94785.66;4781020;29;20035;-92
2022/05/13 03:58:56;;;;;;;5.78;1.60;;;;;;;14.02;55.52;94790.00;4780663;29;20038;-92
2022/05/13 04:01:22;;;;;;;3.60;1.10;;;;;;;14.00;58.66;94781.59;4780632;29;20121;-91
2022/05/13 04:03:47;;;;;;;5.28;1.45;;;;;;;13.84;70.19;94780.94;4797457;29;20041;-91
2022/05/13 04:08:59;;;;;;;6.20;1.40;;;;;;;13.88;61.86;94781.19;4817475;29;20072;-91
2022/05/13 04:11:34;;;;;;;5.18;1.48;;;;;;;13.81;69.43;94784.13;4795119;29;20133;-92
2022/05/13 04:16:46;;;;;;;3.88;1.50;;;;;;;13.81;63.89;94782.28;4826510;29;20091;-89
2022/05/13 04:19:12;;;;;;;3.53;1.25;;;;;;;14.06;63.09;94784.94;4798983;29;20041;-90
2022/05/13 04:21:40;;;;;;;5.70;1.60;;;;;;;14.00;66.80;94787.63;4797606;29;20038;-90
2022/05/13 04:24:08;;;;;;;9.77;1.90;;;;;;;14.13;68.15;94785.41;4797757;29;20073;-90
2022/05/13 04:26:37;;;;;;;8.85;1.70;;;;;;;14.03;70.44;94788.94;4798226;29;20492;-90
2022/05/13 04:29:04;;;;;;;5.60;1.75;;;;;;;13.85;91.70;94796.47;4797766;29;20093;-90
2022/05/13 04:31:32;;;;;;;9.43;1.90;;;;;;;13.91;79.39;94791.91;4797508;29;20138;-90
2022/05/13 04:34:01;;;;;;;2.70;1.67;;;;;;;13.97;91.45;94790.81;4798191;29;20038;-90
2022/05/13 04:36:27;;;;;;;4.78;1.67;;;;;;;14.09;75.97;94802.84;4812296;29;20053;-89
2022/05/13 04:38:56;;;;;;;2.78;1.50;;;;;;;14.14;86.29;94795.69;4797905;29;20042;-90
2022/05/13 04:44:08;;;;;;;9.75;1.70;;;;;;;14.20;86.47;94796.41;4827998;29;20086;-88
2022/05/13 04:46:33;;;;;;;6.78;1.73;;;;;;;14.26;79.83;94795.28;4810567;29;20141;-90
2022/05/13 04:48:59;;;;;;;4.32;1.70;;;;;;;14.35;100.00;94795.47;4824543;29;20132;-89
2022/05/13 04:51:25;;;;;;;7.72;1.95;;;;;;;14.18;96.91;94798.53;4825657;29;20048;-88
2022/05/13 04:53:53;;;;;;;4.07;1.50;;;;;;;14.30;90.84;94798.16;4797497;29;20086;-88
2022/05/13 04:56:19;;;;;;;5.10;1.77;;;;;;;14.39;100.00;94800.97;4812247;29;20030;-88
2022/05/13 04:58:45;;;;;;;5.45;1.67;;;;;;;14.38;100.00;94804.66;4812602;29;20030;-88
2022/05/13 05:01:11;;;;;;;6.43;1.70;;;;;;;14.40;100.00;94802.53;4812259;29;20026;-88
2022/05/13 05:03:37;;;;;;;5.03;1.60;;;;;;;14.50;100.00;94807.69;4811977;29;20086;-89
2022/05/13 05:06:04;;;;;;;4.22;1.60;;;;;;;14.60;100.00;94811.25;4797423;29;20034;-88
2022/05/13 05:08:30;;;;;;;6.32;1.98;;;;;;;14.72;100.00;94809.03;4793797;29;20034;-88
2022/05/13 05:10:56;;;;;;;5.50;1.98;;;;;;;14.84;100.00;94814.69;4794059;29;20141;-88
2022/05/13 05:13:25;;;;;;;5.10;2.20;;;;;;;14.82;100.00;94814.19;4809859;29;20101;-89
2022/05/13 05:15:50;;;;;;;5.60;1.50;;;;;;;14.88;100.00;94817.56;4829749;29;20389;-88
2022/05/13 05:18:16;;;;;;;4.82;1.45;;;;;;;15.04;100.00;94820.00;4830226;29;20124;-89
2022/05/13 05:20:43;;;;;;;3.90;1.67;;;;;;;14.97;100.00;94817.72;4830066;29;20026;-88
2022/05/13 05:23:17;;;;;;;9.93;1.85;;;;;;;15.23;100.00;94817.38;4809305;29;20181;-89
2022/05/13 05:25:43;;;;;;;6.13;1.90;;;;;;;15.31;100.00;94819.38;4793358;29;20134;-88
2022/05/13 05:28:09;;;;;;;8.02;1.90;;;;;;;15.51;100.00;94823.56;4779037;29;20043;-88
2022/05/13 05:30:34;;;;;;;5.55;1.95;;;;;;;15.62;100.00;94829.47;4793646;29;20046;-88
2022/05/13 05:33:05;;;;;;;8.95;2.08;;;;;;;15.59;100.00;94824.78;4793763;29;20034;-88
2022/05/13 05:35:30;;;;;;;6.95;2.00;;;;;;;15.67;100.00;94818.06;4793592;29;20031;-89
2022/05/13 05:37:56;;;;;;;7.80;1.52;;;;;;;15.82;95.58;94817.03;4793680;29;20035;-89
2022/05/13 05:40:22;;;;;;;7.63;1.70;;;;;;;15.97;100.00;94827.38;4778883;29;20452;-88
2022/05/13 05:42:48;;;;;;;10.63;1.77;;;;;;;16.09;100.00;94826.13;4778828;29;20038;-89
2022/05/13 05:45:15;;;;;;;2.95;1.67;;;;;;;16.28;100.00;94825.28;4793480;29;20037;-88
2022/05/13 05:47:40;;;;;;;9.40;1.85;;;;;;;16.47;100.00;94825.97;4778737;29;20034;-88
2022/05/13 05:50:09;;;;;;;2.85;1.45;;;;;;;16.59;100.00;94828.16;4778693;29;20432;-88
2022/05/13 05:52:35;;;;;;;4.70;1.77;;;;;;;16.49;100.00;94825.69;4793132;29;20038;-88
2022/05/13 05:58:05;;;;;;;8.32;2.50;;;;;;;16.61;100.00;94827.84;4795884;29;20365;-89
2022/05/13 06:00:33;;;;;;;6.03;1.67;;;;;;;16.64;100.00;94828.03;4809262;29;20042;-88
2022/05/13 06:02:59;;;;;;;7.72;1.85;;;;;;;16.89;91.20;94830.47;4778389;29;20038;-88
2022/05/13 06:05:25;;;;;;;3.90;1.52;;;;;;;17.15;100.00;94833.44;4808346;29;20060;-89
2022/05/13 06:07:53;;;;;;;3.63;1.65;;;;;;;17.35;97.67;94826.88;4793413;29;20046;-88
2022/05/13 06:10:19;;;;;;;4.35;1.42;;;;;;;17.47;100.00;94831.69;4792986;29;20346;-88
2022/05/13 06:12:45;;;;;;;4.38;1.55;;;;;;;17.65;100.00;94829.94;4793291;29;20045;-88
2022/05/13 06:15:11;;;;;;;4.00;1.52;;;;;;;17.49;100.00;94834.00;4778486;29;20038;-88
2022/05/13 06:17:48;;;;;;;5.95;1.63;;;;;;;17.69;81.13;94837.28;4778783;29;20044;-88
2022/05/13 06:20:15;;;;;;;7.80;1.70;;;;;;;17.77;99.57;94833.91;4778557;29;20034;-88
2022/05/13 06:22:40;;;;;;;2.03;1.20;;;;;;;17.93;92.31;94839.63;4778620;29;20444;-89
2022/05/13 06:25:08;;;;;;;4.60;1.70;;;;;;;17.94;99.77;94839.34;4793273;29;20035;-89
2022/05/13 06:27:34;;;;;;;3.58;1.45;;;;;;;18.07;94.50;94840.38;4793115;29;20035;-88
2022/05/13 06:29:59;;;;;;;7.05;1.90;;;;;;;18.09;77.73;94837.44;4793243;29;20497;-89
2022/05/13 06:32:25;;;;;;;5.38;1.40;;;;;;;17.96;84.45;94841.66;4793168;29;20039;-89
2022/05/13 06:34:50;;;;;;;7.82;1.40;;;;;;;17.88;82.68;94843.19;4808130;29;20061;-89
2022/05/13 06:37:15;;;;;;;8.25;1.63;;;;;;;17.95;75.18;94843.56;4808130;29;20042;-89
2022/05/13 06:39:41;;;;;;;3.55;1.42;;;;;;;18.06;76.04;94838.81;4808169;29;20076;-88
2022/05/13 06:42:07;;;;;;;5.95;1.55;;;;;;;18.00;78.45;94839.97;4793209;29;20420;-89
2022/05/13 06:44:32;;;;;;;6.78;1.40;;;;;;;17.89;73.35;94847.41;4794740;29;20057;-89
2022/05/13 06:46:58;;;;;;;8.00;1.60;;;;;;;18.11;73.75;94840.56;4810929;29;20035;-88
2022/05/13 06:49:23;;;;;;;4.93;1.48;;;;;;;18.33;76.43;94838.94;4813849;29;20035;-89
2022/05/13 06:51:48;;;;;;;5.30;1.52;;;;;;;18.22;83.27;94844.53;4799444;29;20057;-89
2022/05/13 06:54:14;;;;;;;4.45;1.23;;;;;;;18.31;81.58;94841.13;4814175;29;20133;-89
2022/05/13 06:56:41;;;;;;;6.18;1.58;;;;;;;18.42;78.30;94844.28;4814342;29;20041;-89
2022/05/13 06:59:08;;;;;;;5.97;1.52;;;;;;;18.46;71.12;94846.03;4814275;29;20053;-88
2022/05/13 07:01:34;;;;;;;3.63;1.52;;;;;;;18.55;94.61;94846.06;4813956;29;20057;-89
2022/05/13 07:03:59;;;;;;;5.25;1.70;;;;;;;18.50;75.58;94844.31;4814205;29;20069;-89
2022/05/13 07:06:25;;;;;;;3.85;1.58;;;;;;;18.63;80.73;94850.63;4799603;29;20041;-88
2022/05/13 07:08:50;;;;;;;6.07;1.77;;;;;;;18.88;71.60;94856.34;4814063;29;20030;-88
2022/05/13 07:11:17;;;;;;;8.48;1.70;;;;;;;18.75;76.60;94851.91;4799110;29;20060;-88
2022/05/13 07:13:43;;;;;;;9.63;1.60;;;;;;;18.91;71.70;94854.91;4814221;29;20053;-88
2022/05/13 07:16:09;;;;;;;4.22;1.42;;;;;;;19.13;68.78;94847.97;4798930;29;20034;-89
2022/05/13 07:18:36;;;;;;;7.55;1.83;;;;;;;19.16;87.39;94848.16;4798619;29;20061;-88
2022/05/13 07:21:02;;;;;;;9.48;2.28;;;;;;;19.27;71.73;94851.28;4814095;29;20026;-89
2022/05/13 07:23:29;;;;;;;7.00;2.13;;;;;;;19.16;86.99;94850.00;4828784;29;20340;-88
2022/05/13 07:25:55;;;;;;;6.43;1.55;;;;;;;19.19;78.59;94857.34;4814084;29;20332;-89
2022/05/13 07:28:21;;;;;;;4.63;2.28;;;;;;;19.39;82.22;94853.31;4798781;29;20031;-88
2022/05/13 07:30:47;;;;;;;5.72;1.60;;;;;;;19.62;83.18;94845.22;4798766;29;20129;-88
2022/05/13 07:33:48;;;;;;;7.07;2.20;;;;;;;19.75;76.09;94841.63;4813694;29;20445;-88
2022/05/13 07:36:13;;;;;;;5.20;1.40;;;;;;;19.74;68.58;94845.38;4813907;29;20041;-88
2022/05/13 07:41:16;;;;;;;5.15;1.75;;;;;;;20.09;87.76;94846.44;4798727;29;20425;-89
2022/05/13 07:41:25;;;;;;;5.45;1.90;;;;;;;19.98;80.94;94843.34;4816047;29;20045;-88
2022/05/13 07:43:50;;;;;;;4.75;1.73;;;;;;;20.18;73.13;94844.56;4813472;29;20026;-88
2022/05/13 07:46:16;;;;;;;7.35;2.00;;;;;;;20.02;73.80;94846.91;4798534;29;20034;-88
2022/05/13 07:48:41;;;;;;;6.78;2.10;;;;;;;20.20;78.45;94839.69;4798460;29;20034;-89
2022/05/13 07:51:08;;;;;;;7.30;2.10;;;;;;;20.48;75.76;94841.97;4798405;29;20096;-88
2022/05/13 07:53:34;;;;;;;10.27;1.88;;;;;;;20.62;68.00;94839.06;4813468;29;20416;-89
2022/05/13 07:56:01;;;;;;;7.10;1.83;;;;;;;20.56;63.07;94838.47;4797201;29;20034;-88
2022/05/13 07:58:27;;;;;;;5.72;1.98;;;;;;;20.82;80.28;94832.28;4798725;29;20030;-88
2022/05/13 08:00:54;;;;;;;6.75;2.30;;;;;;;20.94;69.67;94836.91;4813193;29;20037;-86
2022/05/13 08:03:20;;;;;;;7.82;2.38;;;;;;;20.84;68.97;94831.97;4798196;29;20034;-88
2022/05/13 08:05:50;;;;;;;4.85;1.60;;;;;;;20.76;74.19;94841.53;4813003;29;20043;-88
2022/05/13 08:08:22;;;;;;;7.00;2.08;;;;;;;20.88;70.14;94843.53;4798135;29;20090;-88
2022/05/13 08:10:55;;;;;;;8.07;2.20;;;;;;;20.87;72.45;94837.44;4813006;29;20045;-88
2022/05/13 08:13:21;;;;;;;8.98;2.42;;;;;;;20.67;69.02;94840.78;4813332;29;20187;-89
2022/05/13 08:15:48;;;;;;;12.73;2.50;;;;;;;20.79;76.58;94842.75;4813005;29;20034;-89
2022/05/13 08:18:15;;;;;;;8.02;2.15;;;;;;;20.77;68.12;94841.19;4798009;29;20133;-89
2022/05/13 08:20:41;;;;;;;6.30;1.98;;;;;;;20.79;72.43;94837.44;4827733;29;20441;-89
2022/05/13 08:23:07;;;;;;;7.05;2.17;;;;;;;20.90;84.59;94841.31;4797810;29;20034;-89
2022/05/13 08:25:32;;;;;;;7.72;2.10;;;;;;;20.93;83.12;94843.34;4812849;29;20041;-89
2022/05/13 08:27:58;;;;;;;7.38;1.90;;;;;;;20.99;68.38;94835.94;4797713;29;20034;-89
2022/05/13 08:30:24;;;;;;;10.38;2.45;;;;;;;20.84;81.10;94838.06;4797748;29;20341;-89
2022/05/13 08:32:50;;;;;;;6.80;2.28;;;;;;;21.07;60.88;94832.47;4812736;29;20112;-89
2022/05/13 08:35:16;;;;;;;8.38;2.63;;;;;;;20.90;67.33;94836.78;4812469;29;20037;-89
2022/05/13 08:37:43;;;;;;;3.97;1.92;;;;;;;21.19;78.14;94837.09;4797711;29;20034;-88
2022/05/13 08:40:45;;;;;;;4.63;1.80;;;;;;;21.28;82.19;94837.81;4812304;29;20061;-89
2022/05/13 08:43:14;;;;;;;8.45;2.33;;;;;;;21.13;71.96;94838.38;4825841;29;20073;-89
2022/05/13 08:45:42;;;;;;;5.38;1.95;;;;;;;21.32;69.63;94835.28;4797694;29;20042;-89
2022/05/13 08:48:09;;;;;;;7.97;2.00;;;;;;;21.45;64.15;94828.13;4827792;29;20136;-89
2022/05/13 08:50:38;;;;;;;4.93;1.85;;;;;;;21.49;68.60;94831.69;4827326;29;20042;-89
2022/05/13 08:53:11;;;;;;;11.45;2.20;;;;;;;21.60;76.59;94827.53;4812456;29;20045;-88
2022/05/13 08:55:46;;;;;;;;;;;;;;;21.46;69.14;94824.34;4812691;29;20099;-89
2022/05/13 08:58:17;;;;;;;4.38;1.90;;;;;;;21.63;63.43;94833.31;4812226;29;20346;-89
2022/05/13 09:00:49;;;;;;;11.07;1.60;;;;;;;21.67;64.55;94827.03;4812188;29;20030;-89
2022/05/13 09:03:20;;;;;;;5.60;2.10;;;;;;;21.88;64.15;94824.34;4797757;29;20333;-89
2022/05/13 09:06:03;;;;;;;10.10;2.08;;;;;;;21.85;58.33;94834.88;4811972;29;20128;-89
2022/05/13 09:08:29;;;;;;;5.72;1.90;;;;;;;21.83;54.88;94826.44;4796948;29;20115;-89
2022/05/13 09:11:33;;;;;;;9.70;1.80;;;;;;;21.84;59.86;94828.00;4796834;29;20152;-88
2022/05/13 09:14:17;;;;;;;;;;;;;;;22.11;60.36;94820.50;4816277;29;20073;-89
2022/05/13 09:17:04;;;;;;;5.80;2.20;;;;;;;22.35;59.93;94814.44;4828307;29;19913;-89
2022/05/13 09:19:45;;;;;;;3.60;2.03;;;;;;;22.45;54.60;94813.22;4828049;29;20511;-88
2022/05/13 09:22:42;;;;;;;8.20;2.22;;;;;;;22.44;63.70;94820.47;4796597;29;20052;-88
2022/05/13 09:25:25;;;;;;;7.40;1.83;;;;;;;22.45;59.51;94826.56;4811605;29;20501;-89
2022/05/13 09:27:59;;;;;;;8.55;2.20;;;;;;;22.48;64.18;94825.16;4827813;29;20174;-88
2022/05/13 09:30:34;;;;;;;8.05;2.10;;;;;;;22.37;67.78;94827.47;4826659;29;20022;-88
2022/05/13 09:33:20;;;;;;;11.00;2.25;;;;;;;22.23;71.33;94822.41;4796671;29;20039;-88
2022/05/13 09:35:53;;;;;;;6.50;1.83;;;;;;;22.42;70.27;94820.03;4811532;29;20038;-88
2022/05/13 09:38:24;;;;;;;7.03;1.90;;;;;;;22.35;68.13;94822.44;4797037;29;20388;-87
2022/05/13 09:41:03;;;;;;;10.93;1.92;;;;;;;22.52;60.13;94812.69;4797145;29;20339;-89
2022/05/13 09:43:44;;;;;;;8.07;1.90;;;;;;;22.53;59.03;94819.63;4811778;29;20038;-88
2022/05/13 09:46:15;;;;;;;8.23;1.95;;;;;;;22.44;58.13;94819.69;4811780;29;20125;-88
2022/05/13 09:48:54;;;;;;;6.80;2.15;;;;;;;22.25;59.74;94814.88;4812019;29;20096;-88
2022/05/13 09:51:23;;;;;;;6.63;2.13;;;;;;;22.26;59.45;94813.78;4811543;29;20034;-89
2022/05/13 09:54:07;;;;;;;11.70;1.80;;;;;;;22.32;60.36;94823.13;4811401;29;20076;-89
2022/05/13 09:56:42;;;;;;;9.20;2.03;;;;;;;22.32;60.82;94807.09;4796753;29;20034;-88
2022/05/13 09:59:24;;;;;;;9.57;2.20;;;;;;;22.51;61.87;94803.13;4811354;29;20357;-90
2022/05/13 10:01:50;;;;;;;5.18;2.35;;;;;;;22.63;60.22;94807.72;4811622;29;20038;-90
2022/05/13 10:04:26;;;;;;;7.28;2.20;;;;;;;22.77;66.92;94804.69;4781349;29;20042;-89
2022/05/13 10:07:04;;;;;;;12.07;2.10;;;;;;;22.63;69.00;94805.06;4796924;29;20034;-89
2022/05/13 10:15:20;;;;;;;7.45;2.22;;;;;;;22.90;61.80;94806.25;4813837;29;20340;-89
2022/05/13 10:17:51;;;;;;;8.45;2.25;;;;;;;22.99;64.73;94803.47;4811610;29;20421;-89
2022/05/13 10:20:32;;;;;;;9.15;2.22;;;;;;;22.94;62.08;94806.38;4799698;29;20034;-89
2022/05/13 10:23:13;;;;;;;11.52;2.10;;;;;;;23.25;63.58;94805.78;4814939;29;20033;-90
2022/05/13 10:26:00;;;;;;;8.23;2.10;;;;;;;23.22;57.38;94803.75;4799664;29;20096;-88
2022/05/13 10:28:35;;;;;;;9.80;2.30;;;;;;;23.01;54.84;94788.66;4800155;29;20026;-89
2022/05/13 10:31:06;;;;;;;6.50;2.00;;;;;;;23.07;58.15;94799.91;4814579;29;20066;-89
2022/05/13 10:33:57;;;;;;;13.00;2.05;;;;;;;23.38;62.13;94792.38;4814279;29;20033;-89
2022/05/13 10:36:41;;;;;;;7.90;1.85;;;;;;;23.44;60.08;94797.16;4830499;29;20504;-88
2022/05/13 10:39:22;;;;;;;12.95;2.28;;;;;;;23.25;61.47;94786.25;4814597;29;20026;-88
2022/05/13 10:41:54;;;;;;;5.65;2.17;;;;;;;23.08;58.27;94793.44;4799937;29;20058;-89
2022/05/13 10:44:37;;;;;;;8.43;2.20;;;;;;;23.47;65.98;94787.69;4814608;29;20477;-88
2022/05/13 10:47:08;;;;;;;10.32;2.22;;;;;;;23.62;65.12;94780.03;4814775;29;20034;-88
2022/05/13 10:49:37;;;;;;;7.22;2.03;;;;;;;23.67;60.97;94793.16;4799838;29;20428;-88
2022/05/13 10:52:21;;;;;;;11.45;2.38;;;;;;;23.28;59.80;94783.72;4814254;29;20040;-88
2022/05/13 10:55:13;;;;;;;8.05;2.33;;;;;;;23.35;58.69;94793.06;4829977;29;20034;-88
2022/05/13 10:57:50;;;;;;;8.75;2.05;;;;;;;23.63;61.31;94782.38;4799131;29;20211;-88
2022/05/13 11:00:18;;;;;;;9.45;2.40;;;;;;;23.81;64.77;94774.81;4814221;29;20037;-89
2022/05/13 11:03:38;;;;;;;8.45;2.03;;;;;;;23.87;63.95;94770.00;4814298;29;20026;-88
2022/05/13 11:06:25;;;;;;;6.43;1.98;;;;;;;23.84;64.34;94774.16;4830004;29;20038;-88
2022/05/13 11:09:04;;;;;;;6.85;1.90;;;;;;;23.64;59.85;94773.25;4799117;29;20129;-88
2022/05/13 11:11:32;;;;;;;4.93;2.15;;;;;;;23.72;62.81;94769.63;4829824;29;20038;-88
2022/05/13 11:14:18;;;;;;;7.85;2.65;;;;;;;23.80;61.13;94773.25;4813675;29;20141;-89
2022/05/13 11:17:07;;;;;;;5.40;2.30;;;;;;;23.65;61.70;94776.69;4813831;29;20042;-89
2022/05/13 11:19:43;;;;;;;5.88;2.60;;;;;;;23.76;64.83;94769.72;4814027;29;20049;-89
2022/05/13 11:22:52;;;;;;;8.25;2.78;;;;;;;23.69;63.25;94772.22;4813763;29;20057;-89
2022/05/13 11:26:02;;;;;;;12.60;2.63;;;;;;;23.65;63.57;94774.00;4813486;29;20069;-89
2022/05/13 11:28:46;;;;;;;10.32;2.08;;;;;;;23.47;65.72;94768.97;4813694;29;20067;-88
2022/05/13 11:31:20;;;;;;;11.35;2.40;;;;;;;23.53;66.80;94769.50;4829388;29;20329;-89
2022/05/13 11:33:54;;;;;;;8.73;2.55;;;;;;;23.50;63.18;94759.50;4813294;29;20094;-89
2022/05/13 11:36:30;;;;;;;9.40;2.40;;;;;;;23.64;66.93;94767.09;4798716;29;20034;-89
2022/05/13 11:39:33;;;;;;;9.63;2.72;;;;;;;23.88;66.32;94760.84;4813357;29;20361;-88
2022/05/13 11:42:19;;;;;;;8.55;2.70;;;;;;;23.91;65.81;94751.38;4813237;29;20071;-88
2022/05/13 11:44:59;;;;;;;13.63;2.70;;;;;;;24.09;63.15;94757.97;4819651;29;20050;-89
2022/05/13 11:47:39;;;;;;;8.27;2.33;;;;;;;23.82;60.92;94754.22;4813557;29;20061;-88
2022/05/13 11:50:05;;;;;;;11.73;2.55;;;;;;;23.81;67.22;94752.66;4813301;29;20034;-89
2022/05/13 11:52:40;;;;;;;7.80;2.33;;;;;;;24.11;75.27;94747.72;4798441;29;20052;-89
2022/05/13 11:55:16;;;;;;;7.90;2.28;;;;;;;24.19;75.69;94758.59;4813098;29;20043;-88
2022/05/13 11:57:48;;;;;;;8.75;2.63;;;;;;;24.34;71.48;94744.41;4813081;29;20049;-89
2022/05/13 12:00:24;;;;;;;8.48;2.67;;;;;;;24.54;67.54;94749.84;4812870;29;20034;-89
2022/05/13 12:03:01;;;;;;;9.32;2.70;;;;;;;24.26;63.62;94743.47;4813063;29;20056;-89
2022/05/13 12:05:29;;;;;;;8.43;2.63;;;;;;;24.51;71.90;94737.13;4812863;29;20041;-89
2022/05/13 12:07:54;;;;;;;6.50;2.40;;;;;;;24.66;66.85;94735.56;4797928;29;20034;-89